Time;durP1;ratioP1;P1;durP2;ratioP2;P2;SDS_P1;SDS_P2;PMS_P1;PMS_P2;Temp;Humidity;BMP_temperature;BMP_pressure;BME280_temperature;BME280_humidity;BME280_pressure;Samples;Min_cycle;Max_cycle;Signal;HPM_P1;HPM_P2
2024/04/20 00:01:34;;;;;;;;;;;5.90;99.90;;;;;;5526066;25;19928;-70
2024/04/20 00:04:00;;;;;;;;;;;5.90;99.90;;;;;;5526544;25;19927;-70
2024/04/20 00:06:25;;;;;;;;;;;5.90;99.90;;;;;;5526471;25;20097;-70
2024/04/20 00:08:51;;;;;;;;;;;5.80;99.90;;;;;;5526478;25;20603;-70
2024/04/20 00:11:16;;;;;;;;;;;5.80;99.90;;;;;;5525754;25;19997;-69
2024/04/20 00:13:44;;;;;;;;;;;5.90;99.90;;;;;;5526221;25;19976;-69
2024/04/20 00:16:10;;;;;;;;;;;5.90;99.90;;;;;;5526302;25;20006;-69
2024/04/20 00:18:35;;;;;;;;;;;5.90;99.90;;;;;;5526299;25;19931;-70
2024/04/20 00:21:01;;;;;;;;;;;5.80;99.90;;;;;;5525839;25;20366;-69
2024/04/20 00:23:26;;;;;;;;;;;5.80;99.90;;;;;;5526217;25;19928;-69
2024/04/20 00:25:52;;;;;;;;;;;5.80;99.90;;;;;;5526208;25;19935;-70
2024/04/20 00:28:18;;;;;;;;;;;5.80;99.90;;;;;;5525953;25;19927;-70
2024/04/20 00:30:44;;;;;;;;;;;5.70;99.90;;;;;;5525593;25;19946;-68
2024/04/20 00:33:10;;;;;;;;;;;5.70;99.90;;;;;;5526015;25;19927;-69
2024/04/20 00:35:37;;;;;;;;;;;5.70;99.90;;;;;;5525902;25;19927;-70
2024/04/20 00:38:03;;;;;;;;;;;5.70;99.90;;;;;;5525765;25;19927;-69
2024/04/20 00:40:28;;;;;;;;;;;5.60;99.90;;;;;;5525557;25;19935;-70
2024/04/20 00:42:54;;;;;;;;;;;5.60;99.90;;;;;;5524030;26;19935;-69
2024/04/20 00:45:19;;;;;;;;;;;5.60;99.90;;;;;;5525829;25;19932;-69
2024/04/20 00:47:45;;;;;;;;;;;5.60;99.90;;;;;;5525833;25;19940;-70
2024/04/20 00:50:11;;;;;;;;;;;5.50;99.90;;;;;;5525615;25;19940;-70
2024/04/20 00:52:37;;;;;;;;;;;5.50;99.90;;;;;;5525180;25;20380;-69
2024/04/20 00:55:03;;;;;;;;;;;5.50;99.90;;;;;;5525701;25;20383;-69
2024/04/20 00:57:28;;;;;;;;;;;5.50;99.90;;;;;;5525839;25;19971;-69
2024/04/20 00:59:54;;;;;;;;;;;5.50;99.90;;;;;;5525639;25;19927;-70
2024/04/20 01:02:19;;;;;;;;;;;5.50;99.90;;;;;;5525407;25;19927;-70
2024/04/20 01:04:45;;;;;;;;;;;5.40;99.90;;;;;;5525629;25;19931;-70
2024/04/20 01:07:11;;;;;;;;;;;5.50;99.90;;;;;;5525626;25;19959;-69
2024/04/20 01:09:37;;;;;;;;;;;5.40;99.90;;;;;;5525547;25;19964;-68
2024/04/20 01:12:03;;;;;;;;;;;5.40;99.90;;;;;;5525009;25;19927;-69
2024/04/20 01:14:28;;;;;;;;;;;5.50;99.90;;;;;;5525388;25;19928;-69
2024/04/20 01:16:53;;;;;;;;;;;5.50;99.90;;;;;;5525444;25;19990;-69
2024/04/20 01:19:22;;;;;;;;;;;5.50;99.90;;;;;;5525347;25;20404;-68
2024/04/20 01:21:47;;;;;;;;;;;5.50;99.90;;;;;;5524951;25;19931;-69
2024/04/20 01:24:14;;;;;;;;;;;5.50;99.90;;;;;;5525248;25;19931;-68
2024/04/20 01:26:40;;;;;;;;;;;5.50;99.90;;;;;;5525183;25;19935;-68
2024/04/20 01:29:05;;;;;;;;;;;5.40;99.90;;;;;;5523308;26;20363;-68
2024/04/20 01:31:31;;;;;;;;;;;5.40;99.90;;;;;;5524978;25;20301;-69
2024/04/20 01:33:56;;;;;;;;;;;5.40;99.90;;;;;;5525263;25;19933;-69
2024/04/20 01:36:22;;;;;;;;;;;5.40;99.90;;;;;;5524999;25;19928;-69
2024/04/20 01:38:47;;;;;;;;;;;5.30;99.90;;;;;;5524916;25;19935;-69
2024/04/20 01:41:13;;;;;;;;;;;5.30;99.90;;;;;;5524338;25;20379;-68
2024/04/20 01:43:38;;;;;;;;;;;5.30;99.90;;;;;;5525251;25;19940;-69
2024/04/20 01:46:04;;;;;;;;;;;5.20;99.90;;;;;;5524936;25;20264;-69
2024/04/20 01:48:29;;;;;;;;;;;5.20;99.90;;;;;;5525717;25;19928;-69
2024/04/20 01:50:55;;;;;;;;;;;5.20;99.90;;;;;;5527895;25;19963;-69
2024/04/20 01:53:21;;;;;;;;;;;5.10;99.90;;;;;;5528365;25;19927;-69
2024/04/20 01:55:46;;;;;;;;;;;5.10;99.90;;;;;;5528274;25;19928;-69
2024/04/20 01:58:12;;;;;;;;;;;5.10;99.90;;;;;;5528238;25;19927;-69
2024/04/20 02:00:38;;;;;;;;;;;5.10;99.90;;;;;;5527855;25;20350;-68
2024/04/20 02:03:03;;;;;;;;;;;5.00;99.90;;;;;;5528381;25;19960;-68
2024/04/20 02:05:29;;;;;;;;;;;5.10;99.90;;;;;;5528256;25;19927;-69
2024/04/20 02:07:55;;;;;;;;;;;5.00;99.90;;;;;;5528254;25;19928;-69
2024/04/20 02:10:20;;;;;;;;;;;5.00;99.90;;;;;;5527412;25;19939;-68
2024/04/20 02:12:46;;;;;;;;;;;5.10;99.90;;;;;;5528056;25;19950;-68
2024/04/20 02:15:11;;;;;;;;;;;5.10;99.90;;;;;;5528104;25;19933;-69
2024/04/20 02:17:37;;;;;;;;;;;5.10;99.90;;;;;;5528111;25;19928;-69
2024/04/20 02:20:03;;;;;;;;;;;5.10;99.90;;;;;;5527813;25;19928;-69
2024/04/20 02:22:28;;;;;;;;;;;5.10;99.90;;;;;;5527641;25;19955;-69
2024/04/20 02:24:54;;;;;;;;;;;5.10;99.90;;;;;;5527814;25;19928;-69
2024/04/20 02:27:19;;;;;;;;;;;5.20;99.90;;;;;;5527813;25;20364;-68
2024/04/20 02:29:47;;;;;;;;;;;5.10;99.90;;;;;;5527815;25;19968;-69
2024/04/20 02:32:12;;;;;;;;;;;5.20;99.90;;;;;;5527454;25;20427;-69
2024/04/20 02:34:38;;;;;;;;;;;5.30;99.90;;;;;;5527896;25;19971;-68
2024/04/20 02:37:11;;;;;;;;;;;5.40;99.90;;;;;;5528095;25;19939;-68
2024/04/20 02:39:37;;;;;;;;;;;5.40;99.90;;;;;;5527392;25;19931;-67
2024/04/20 02:42:03;;;;;;;;;;;5.40;99.90;;;;;;5527295;25;19934;-67
2024/04/20 02:44:29;;;;;;;;;;;5.40;99.90;;;;;;5527661;25;19928;-67
2024/04/20 02:46:55;;;;;;;;;;;5.30;99.90;;;;;;5527577;25;19934;-68
2024/04/20 02:49:20;;;;;;;;;;;5.30;99.90;;;;;;5527319;25;19927;-70
2024/04/20 02:51:46;;;;;;;;;;;5.30;99.90;;;;;;5527127;25;19939;-67
2024/04/20 02:54:13;;;;;;;;;;;5.30;99.90;;;;;;5527541;25;19995;-67
2024/04/20 02:56:38;;;;;;;;;;;5.30;99.90;;;;;;5527570;25;19928;-70
2024/04/20 02:59:04;;;;;;;;;;;5.30;99.90;;;;;;5527300;25;20041;-67
2024/04/20 03:01:29;;;;;;;;;;;5.30;99.90;;;;;;5527036;25;19951;-67
2024/04/20 03:03:55;;;;;;;;;;;5.30;99.90;;;;;;5527318;25;19935;-68
2024/04/20 03:06:23;;;;;;;;;;;5.30;99.90;;;;;;5527258;25;19938;-67
2024/04/20 03:08:49;;;;;;;;;;;5.40;99.90;;;;;;5527262;25;19934;-67
2024/04/20 03:11:14;;;;;;;;;;;5.40;99.90;;;;;;5526721;25;20415;-70
2024/04/20 03:13:40;;;;;;;;;;;5.40;99.90;;;;;;5527191;25;19927;-67
2024/04/20 03:16:05;;;;;;;;;;;5.50;99.90;;;;;;5527246;25;19927;-67
2024/04/20 03:18:32;;;;;;;;;;;5.50;99.90;;;;;;5527144;25;19935;-68
2024/04/20 03:20:58;;;;;;;;;;;5.50;99.90;;;;;;5526755;25;19939;-67
2024/04/20 03:23:25;;;;;;;;;;;5.50;99.90;;;;;;5527160;25;19927;-67
2024/04/20 03:25:51;;;;;;;;;;;5.50;99.90;;;;;;5527001;25;19934;-67
2024/04/20 03:28:16;;;;;;;;;;;5.50;99.90;;;;;;5527139;25;19928;-67
2024/04/20 03:30:41;;;;;;;;;;;5.50;99.90;;;;;;5526353;25;19955;-67
2024/04/20 03:33:07;;;;;;;;;;;5.50;99.90;;;;;;5527073;25;20709;-70
2024/04/20 03:35:32;;;;;;;;;;;5.60;99.90;;;;;;5526834;25;19928;-67
2024/04/20 03:37:58;;;;;;;;;;;5.60;99.90;;;;;;5526946;25;20390;-67
2024/04/20 03:40:23;;;;;;;;;;;5.60;99.90;;;;;;5526271;25;19934;-68
2024/04/20 03:42:49;;;;;;;;;;;5.60;99.90;;;;;;5526835;25;19928;-67
2024/04/20 03:45:14;;;;;;;;;;;5.60;99.90;;;;;;5526803;25;20000;-67
2024/04/20 03:47:40;;;;;;;;;;;5.60;99.90;;;;;;5526689;25;19928;-68
2024/04/20 03:50:05;;;;;;;;;;;5.50;99.90;;;;;;5526691;25;19961;-70
2024/04/20 03:52:31;;;;;;;;;;;5.60;99.90;;;;;;5526381;25;19998;-67
2024/04/20 03:54:56;;;;;;;;;;;5.60;99.90;;;;;;5526663;25;20367;-67
2024/04/20 03:57:22;;;;;;;;;;;5.50;99.90;;;;;;5526579;25;19939;-67
2024/04/20 03:59:48;;;;;;;;;;;5.60;99.90;;;;;;5526588;25;19927;-68
2024/04/20 04:02:14;;;;;;;;;;;5.60;99.90;;;;;;5526250;25;20270;-67
2024/04/20 04:04:39;;;;;;;;;;;5.60;99.90;;;;;;5526564;25;19927;-67
2024/04/20 04:07:05;;;;;;;;;;;5.60;99.90;;;;;;5526403;25;19996;-67
2024/04/20 04:09:30;;;;;;;;;;;5.50;99.90;;;;;;5526274;25;19939;-67
2024/04/20 04:11:56;;;;;;;;;;;5.60;99.90;;;;;;5524974;25;19938;-70
2024/04/20 04:14:21;;;;;;;;;;;5.50;99.90;;;;;;5526305;25;19927;-67
2024/04/20 04:16:47;;;;;;;;;;;5.60;99.90;;;;;;5526414;25;20379;-67
2024/04/20 04:19:12;;;;;;;;;;;5.60;99.90;;;;;;5526324;25;19936;-67
2024/04/20 04:21:38;;;;;;;;;;;5.50;99.90;;;;;;5525692;25;20295;-67
2024/04/20 04:24:04;;;;;;;;;;;5.50;99.90;;;;;;5526111;25;20586;-67
2024/04/20 04:26:29;;;;;;;;;;;5.60;99.90;;;;;;5526215;25;19931;-67
2024/04/20 04:28:55;;;;;;;;;;;5.60;99.90;;;;;;5526174;25;19962;-67
2024/04/20 04:31:24;;;;;;;;;;;5.60;99.90;;;;;;5525629;25;20386;-69
2024/04/20 04:33:50;;;;;;;;;;;5.60;99.90;;;;;;5526096;25;19927;-67
2024/04/20 04:36:15;;;;;;;;;;;5.50;99.90;;;;;;5525991;25;19928;-67
2024/04/20 04:38:41;;;;;;;;;;;5.60;99.90;;;;;;5525889;25;19927;-67
2024/04/20 04:41:06;;;;;;;;;;;5.60;99.90;;;;;;5525456;25;19996;-70
2024/04/20 04:43:32;;;;;;;;;;;5.50;99.90;;;;;;5525905;25;20260;-67
2024/04/20 04:45:57;;;;;;;;;;;5.50;99.90;;;;;;5526071;25;19995;-67
2024/04/20 04:48:24;;;;;;;;;;;5.50;99.90;;;;;;5525766;25;19935;-68
2024/04/20 04:50:50;;;;;;;;;;;5.50;99.90;;;;;;5525365;25;19956;-68
2024/04/20 04:53:15;;;;;;;;;;;5.50;99.90;;;;;;5525969;25;20264;-67
2024/04/20 04:55:41;;;;;;;;;;;5.50;99.90;;;;;;5525728;25;19927;-68
2024/04/20 04:58:07;;;;;;;;;;;5.50;99.90;;;;;;5525725;25;19931;-66
2024/04/20 05:00:32;;;;;;;;;;;5.50;99.90;;;;;;5525195;25;20540;-66
2024/04/20 05:02:58;;;;;;;;;;;5.50;99.90;;;;;;5525544;25;19939;-67
2024/04/20 05:05:23;;;;;;;;;;;5.50;99.90;;;;;;5525611;25;19936;-68
2024/04/20 05:07:48;;;;;;;;;;;5.50;99.90;;;;;;5525464;25;19935;-66
2024/04/20 05:10:14;;;;;;;;;;;5.60;99.90;;;;;;5525381;25;19927;-66
2024/04/20 05:12:40;;;;;;;;;;;5.60;99.90;;;;;;5525071;25;19933;-67
2024/04/20 05:15:05;;;;;;;;;;;5.60;99.90;;;;;;5525453;25;19995;-68
2024/04/20 05:17:31;;;;;;;;;;;5.60;99.90;;;;;;5525474;25;19934;-67
2024/04/20 05:19:56;;;;;;;;;;;5.60;99.90;;;;;;5525246;25;19935;-67
2024/04/20 05:22:22;;;;;;;;;;;5.60;99.90;;;;;;5523807;25;19938;-66
2024/04/20 05:24:48;;;;;;;;;;;5.60;99.90;;;;;;5524536;25;19995;-67
2024/04/20 05:27:14;;;;;;;;;;;5.60;99.90;;;;;;5525304;25;19934;-68
2024/04/20 05:29:39;;;;;;;;;;;5.60;99.90;;;;;;5525197;25;20313;-68
2024/04/20 05:32:05;;;;;;;;;;;5.60;99.90;;;;;;5524682;25;19928;-67
2024/04/20 05:34:30;;;;;;;;;;;5.60;99.90;;;;;;5525086;25;19974;-67
2024/04/20 05:36:56;;;;;;;;;;;5.60;99.90;;;;;;5524950;25;19979;-67
2024/04/20 05:39:21;;;;;;;;;;;5.60;99.90;;;;;;5525008;25;19962;-69
2024/04/20 05:41:47;;;;;;;;;;;5.60;99.90;;;;;;5524874;25;20369;-67
2024/04/20 05:44:12;;;;;;;;;;;5.60;99.90;;;;;;5524902;25;19928;-67
2024/04/20 05:46:38;;;;;;;;;;;5.70;99.90;;;;;;5524947;25;20379;-67
2024/04/20 05:49:03;;;;;;;;;;;5.70;99.90;;;;;;5525148;25;19935;-69
2024/04/20 05:51:29;;;;;;;;;;;5.70;99.90;;;;;;5524088;25;19928;-68
2024/04/20 05:53:54;;;;;;;;;;;5.70;99.90;;;;;;5524655;25;19939;-68
2024/04/20 05:56:20;;;;;;;;;;;5.80;99.90;;;;;;5522946;26;19928;-68
2024/04/20 05:58:45;;;;;;;;;;;5.70;99.90;;;;;;5524452;25;19928;-68
2024/04/20 06:01:12;;;;;;;;;;;5.80;99.90;;;;;;5522335;25;19928;-69
2024/04/20 06:03:38;;;;;;;;;;;5.80;99.90;;;;;;5524617;25;20420;-68
2024/04/20 06:06:03;;;;;;;;;;;5.80;99.90;;;;;;5524326;25;19927;-69
2024/04/20 06:08:29;;;;;;;;;;;5.80;99.90;;;;;;5524430;25;19995;-69
2024/04/20 06:10:55;;;;;;;;;;;5.80;99.90;;;;;;5523923;25;20402;-69
2024/04/20 06:13:20;;;;;;;;;;;5.80;99.90;;;;;;5524320;25;19994;-69
2024/04/20 06:15:46;;;;;;;;;;;5.80;99.90;;;;;;5524553;25;19936;-68
2024/04/20 06:18:11;;;;;;;;;;;5.80;99.90;;;;;;5524233;25;19938;-69
2024/04/20 06:20:37;;;;;;;;;;;5.90;99.90;;;;;;5523599;25;19995;-69
2024/04/20 06:23:10;;;;;;;;;;;5.80;99.90;;;;;;5524272;25;20275;-68
2024/04/20 06:25:36;;;;;;;;;;;5.80;99.90;;;;;;5524172;25;19995;-69
2024/04/20 06:28:02;;;;;;;;;;;5.80;99.90;;;;;;5524098;25;20430;-68
2024/04/20 06:30:28;;;;;;;;;;;5.90;99.90;;;;;;5523447;25;19928;-68
2024/04/20 06:32:55;;;;;;;;;;;5.90;99.90;;;;;;5523802;25;20264;-69
2024/04/20 06:35:20;;;;;;;;;;;5.90;99.90;;;;;;5526475;25;20280;-69
2024/04/20 06:37:46;;;;;;;;;;;5.90;99.90;;;;;;5527880;25;19934;-67
2024/04/20 06:40:11;;;;;;;;;;;6.00;99.90;;;;;;5527183;25;19928;-67
2024/04/20 06:42:37;;;;;;;;;;;6.00;99.90;;;;;;5527205;25;19939;-67
2024/04/20 06:45:03;;;;;;;;;;;6.10;99.90;;;;;;5527697;25;19939;-67
2024/04/20 06:47:29;;;;;;;;;;;6.10;99.90;;;;;;5527702;25;19927;-68
2024/04/20 06:49:55;;;;;;;;;;;6.20;99.90;;;;;;5527444;25;19928;-67
2024/04/20 06:52:21;;;;;;;;;;;6.20;99.90;;;;;;5527188;25;19934;-67
2024/04/20 06:54:49;;;;;;;;;;;6.20;99.90;;;;;;5527554;25;19955;-69
2024/04/20 06:57:15;;;;;;;;;;;6.30;99.90;;;;;;5527518;25;19932;-70
2024/04/20 06:59:40;;;;;;;;;;;6.30;99.90;;;;;;5527362;25;20004;-69
2024/04/20 07:02:06;;;;;;;;;;;6.40;99.90;;;;;;5527237;25;20435;-67
2024/04/20 07:04:31;;;;;;;;;;;6.40;99.90;;;;;;5527249;25;19939;-67
2024/04/20 07:06:57;;;;;;;;;;;6.50;99.90;;;;;;5527428;25;19938;-68
2024/04/20 07:09:23;;;;;;;;;;;6.60;99.90;;;;;;5527279;25;19971;-67
2024/04/20 07:11:49;;;;;;;;;;;6.70;99.90;;;;;;5526699;25;19960;-70
2024/04/20 07:14:14;;;;;;;;;;;6.70;99.90;;;;;;5527193;25;19927;-67
2024/04/20 07:16:40;;;;;;;;;;;6.70;99.90;;;;;;5521382;25;19935;-67
2024/04/20 07:19:05;;;;;;;;;;;6.70;99.90;;;;;;5516449;25;19994;-68
2024/04/20 07:21:31;;;;;;;;;;;6.60;99.90;;;;;;5526715;25;19934;-67
2024/04/20 07:23:57;;;;;;;;;;;6.60;99.90;;;;;;5523768;25;19927;-67
2024/04/20 07:26:22;;;;;;;;;;;6.60;99.90;;;;;;5509015;25;19979;-67
2024/04/20 07:28:48;;;;;;;;;;;6.60;99.90;;;;;;5527468;25;20351;-68
2024/04/20 07:31:13;;;;;;;;;;;6.70;99.90;;;;;;5526694;26;19927;-68
2024/04/20 07:33:39;;;;;;;;;;;6.80;99.90;;;;;;5526964;25;19951;-67
2024/04/20 07:36:04;;;;;;;;;;;6.70;99.90;;;;;;5526026;26;19939;-67
2024/04/20 07:38:30;;;;;;;;;;;6.70;99.90;;;;;;5527247;25;20371;-67
2024/04/20 07:40:56;;;;;;;;;;;6.80;99.90;;;;;;5524263;25;20353;-67
2024/04/20 07:43:21;;;;;;;;;;;6.80;99.90;;;;;;5526105;25;19928;-70
2024/04/20 07:45:47;;;;;;;;;;;6.80;99.90;;;;;;5524063;26;19938;-67
2024/04/20 07:48:12;;;;;;;;;;;6.70;99.90;;;;;;5526300;25;19927;-67
2024/04/20 07:50:38;;;;;;;;;;;6.70;99.90;;;;;;5526156;25;19927;-68
2024/04/20 07:53:03;;;;;;;;;;;6.60;99.90;;;;;;5526542;25;20317;-67
2024/04/20 07:55:29;;;;;;;;;;;6.70;99.90;;;;;;5525441;25;19951;-67
2024/04/20 07:57:54;;;;;;;;;;;6.70;99.90;;;;;;5522725;25;20030;-68
2024/04/20 08:00:20;;;;;;;;;;;6.70;99.90;;;;;;5524196;25;19927;-68
2024/04/20 08:02:46;;;;;;;;;;;6.80;99.90;;;;;;5524082;25;19927;-68
2024/04/20 08:05:12;;;;;;;;;;;6.80;99.90;;;;;;5526389;25;19928;-68
2024/04/20 08:07:37;;;;;;;;;;;6.90;99.90;;;;;;5526390;25;19927;-67
2024/04/20 08:10:03;;;;;;;;;;;6.90;99.90;;;;;;5526379;25;19959;-67
2024/04/20 08:12:29;;;;;;;;;;;6.90;99.90;;;;;;5526020;25;19964;-67
2024/04/20 08:14:54;;;;;;;;;;;7.00;99.90;;;;;;5526374;25;19927;-68
2024/04/20 08:17:20;;;;;;;;;;;7.10;99.90;;;;;;5526197;25;19964;-67
2024/04/20 08:19:45;;;;;;;;;;;7.10;99.90;;;;;;5526236;25;19982;-67
2024/04/20 08:22:11;;;;;;;;;;;7.20;99.90;;;;;;5525877;25;19932;-67
2024/04/20 08:24:36;;;;;;;;;;;7.20;99.90;;;;;;5526236;25;20372;-68
2024/04/20 08:27:02;;;;;;;;;;;7.30;99.90;;;;;;5526178;25;19927;-68
2024/04/20 08:29:27;;;;;;;;;;;7.20;99.90;;;;;;5526023;25;19935;-67
2024/04/20 08:31:53;;;;;;;;;;;7.00;98.50;;;;;;5525479;25;19928;-67
2024/04/20 08:34:18;;;;;;;;;;;7.00;99.90;;;;;;5526530;25;19928;-69
2024/04/20 08:36:45;;;;;;;;;;;6.90;99.90;;;;;;5526064;25;20379;-67
2024/04/20 08:39:11;;;;;;;;;;;7.00;99.90;;;;;;5526068;25;19936;-70
2024/04/20 08:41:40;;;;;;;;;;;7.00;99.90;;;;;;5525604;25;20035;-70
2024/04/20 08:44:07;;;;;;;;;;;7.10;99.90;;;;;;5525905;25;19927;-67
2024/04/20 08:46:33;;;;;;;;;;;7.10;99.90;;;;;;5525782;25;19935;-69
2024/04/20 08:49:04;;;;;;;;;;;7.10;99.90;;;;;;5525764;25;19927;-69
2024/04/20 08:51:31;;;;;;;;;;;7.10;99.90;;;;;;5525289;25;19935;-69
2024/04/20 08:53:57;;;;;;;;;;;7.10;99.90;;;;;;5525671;25;19960;-68
2024/04/20 08:56:23;;;;;;;;;;;7.30;99.90;;;;;;5525444;25;19928;-69
2024/04/20 08:58:49;;;;;;;;;;;7.40;99.90;;;;;;5520031;25;20288;-68
2024/04/20 09:01:17;;;;;;;;;;;7.50;99.90;;;;;;5524943;25;19935;-69
2024/04/20 09:03:42;;;;;;;;;;;7.50;99.90;;;;;;5525597;25;19939;-69
2024/04/20 09:06:10;;;;;;;;;;;7.60;99.90;;;;;;5525629;26;20363;-69
2024/04/20 09:08:36;;;;;;;;;;;7.70;92.30;;;;;;5525482;25;20279;-68
2024/04/20 09:11:02;;;;;;;;;;;7.70;91.20;;;;;;5524958;25;19927;-69
2024/04/20 09:13:27;;;;;;;;;;;7.70;91.30;;;;;;5525015;25;19973;-68
2024/04/20 09:15:54;;;;;;;;;;;7.60;70.10;;;;;;5525483;25;19928;-69
2024/04/20 09:18:19;;;;;;;;;;;7.70;90.40;;;;;;5525712;25;20304;-68
2024/04/20 09:20:45;;;;;;;;;;;7.80;81.40;;;;;;5524773;26;19934;-70
2024/04/20 09:23:11;;;;;;;;;;;7.70;64.30;;;;;;5525242;25;19934;-70
2024/04/20 09:25:37;;;;;;;;;;;7.80;80.80;;;;;;5525256;25;20523;-69
2024/04/20 09:28:06;;;;;;;;;;;7.80;59.80;;;;;;5525104;25;19931;-70
2024/04/20 09:30:31;;;;;;;;;;;7.90;54.10;;;;;;5524519;25;19935;-68
2024/04/20 09:32:57;;;;;;;;;;;8.00;37.90;;;;;;5514450;26;19928;-69
2024/04/20 09:35:24;;;;;;;;;;;8.20;52.50;;;;;;5509186;25;19928;-69
2024/04/20 09:37:52;;;;;;;;;;;8.30;49.20;;;;;;5494338;26;20001;-70
2024/04/20 09:40:18;;;;;;;;;;;8.50;51.60;;;;;;5492548;26;19928;-68
2024/04/20 09:42:45;;;;;;;;;;;8.40;37.80;;;;;;5507847;25;19927;-70
2024/04/20 09:45:10;;;;;;;;;;;8.40;33.20;;;;;;5520362;25;19928;-70
2024/04/20 09:47:36;;;;;;;;;;;8.40;28.40;;;;;;5524564;26;19972;-70
2024/04/20 09:50:11;;;;;;;;;;;8.40;28.70;;;;;;5524607;25;20356;-69
2024/04/20 09:52:36;;;;;;;;;;;8.40;28.60;;;;;;5524208;25;20275;-70
2024/04/20 09:55:05;;;;;;;;;;;8.30;40.30;;;;;;5524647;25;19995;-69
2024/04/20 09:57:34;;;;;;;;;;;8.10;54.60;;;;;;5524765;25;19928;-69
2024/04/20 09:59:59;;;;;;;;;;;8.10;60.00;;;;;;5524400;25;19927;-71
2024/04/20 10:02:25;;;;;;;;;;;8.30;68.00;;;;;;5521809;25;19937;-69
2024/04/20 10:04:58;;;;;;;;;;;8.40;63.10;;;;;;5510058;26;19960;-68
2024/04/20 10:07:25;;;;;;;;;;;8.70;60.90;;;;;;5505059;25;19928;-70
2024/04/20 10:09:51;;;;;;;;;;;9.00;42.60;;;;;;5505642;25;19972;-70
2024/04/20 10:12:17;;;;;;;;;;;8.90;14.70;;;;;;5510335;26;19927;-69
2024/04/20 10:14:45;;;;;;;;;;;8.70;21.40;;;;;;5507734;26;19935;-69
2024/04/20 10:17:11;;;;;;;;;;;8.70;26.10;;;;;;5507983;25;19936;-69
2024/04/20 10:19:46;;;;;;;;;;;8.70;27.20;;;;;;5501240;25;19981;-70
2024/04/20 10:22:11;;;;;;;;;;;8.50;28.70;;;;;;5490310;26;19935;-70
2024/04/20 10:24:36;;;;;;;;;;;8.50;29.70;;;;;;5490901;26;19928;-69
2024/04/20 10:27:02;;;;;;;;;;;8.50;23.60;;;;;;5490842;26;19932;-70
2024/04/20 10:29:31;;;;;;;;;;;8.70;37.10;;;;;;5490184;26;19927;-70
2024/04/20 10:32:02;;;;;;;;;;;9.10;47.90;;;;;;5490450;26;20416;-70
2024/04/20 10:34:27;;;;;;;;;;;9.70;51.70;;;;;;5490765;26;19968;-70
2024/04/20 10:36:57;;;;;;;;;;;10.30;26.10;;;;;;5490191;26;19996;-70
2024/04/20 10:39:26;;;;;;;;;;;10.60;3.10;;;;;;5508332;26;19937;-70
2024/04/20 10:41:51;;;;;;;;;;;10.50;4.30;;;;;;5527206;25;20382;-70
2024/04/20 10:44:17;;;;;;;;;;;10.80;6.10;;;;;;5527188;25;19975;-70
2024/04/20 10:46:52;;;;;;;;;;;10.80;1.00;;;;;;5527962;26;20299;-70
2024/04/20 10:49:18;;;;;;;;;;;10.40;1.00;;;;;;5527281;25;20274;-70
2024/04/20 10:51:56;;;;;;;;;;;9.90;4.80;;;;;;5526602;26;19927;-70
2024/04/20 10:54:23;;;;;;;;;;;9.60;12.10;;;;;;5527510;25;19927;-70
2024/04/20 10:56:54;;;;;;;;;;;9.30;16.40;;;;;;5527682;25;20352;-70
2024/04/20 10:59:20;;;;;;;;;;;9.00;16.20;;;;;;5526914;25;19927;-69
2024/04/20 11:01:46;;;;;;;;;;;9.10;30.00;;;;;;5526621;25;19934;-70
2024/04/20 11:04:12;;;;;;;;;;;9.20;17.80;;;;;;5527233;26;20363;-69
2024/04/20 11:06:37;;;;;;;;;;;9.30;18.80;;;;;;5527131;25;19928;-70
2024/04/20 11:09:09;;;;;;;;;;;9.50;22.60;;;;;;5527007;25;19935;-69
2024/04/20 11:11:34;;;;;;;;;;;9.50;12.50;;;;;;5526743;25;20003;-70
2024/04/20 11:14:00;;;;;;;;;;;9.80;12.40;;;;;;5527082;25;19936;-70
2024/04/20 11:16:26;;;;;;;;;;;10.00;7.90;;;;;;5526906;25;19931;-70
2024/04/20 11:18:52;;;;;;;;;;;10.00;5.00;;;;;;5526946;25;19927;-70
2024/04/20 11:21:17;;;;;;;;;;;9.50;5.60;;;;;;5526182;26;20435;-70
2024/04/20 11:23:43;;;;;;;;;;;9.20;16.90;;;;;;5526918;26;20268;-69
2024/04/20 11:26:08;;;;;;;;;;;9.20;22.00;;;;;;5526860;25;19928;-70
2024/04/20 11:28:34;;;;;;;;;;;9.20;31.40;;;;;;5526357;25;19964;-69
2024/04/20 11:31:01;;;;;;;;;;;9.30;33.90;;;;;;5526048;25;19961;-69
2024/04/20 11:33:27;;;;;;;;;;;9.30;34.30;;;;;;5510625;25;20400;-71
2024/04/20 11:35:53;;;;;;;;;;;9.30;47.20;;;;;;5509456;25;19934;-70
2024/04/20 11:38:18;;;;;;;;;;;8.90;56.20;;;;;;5516988;25;19934;-71
2024/04/20 11:40:44;;;;;;;;;;;8.80;93.30;;;;;;5526253;25;19980;-70
2024/04/20 11:43:10;;;;;;;;;;;8.70;91.80;;;;;;5526736;25;19935;-70
2024/04/20 11:45:42;;;;;;;;;;;8.80;91.30;;;;;;5526494;25;19934;-70
2024/04/20 11:48:09;;;;;;;;;;;8.90;70.00;;;;;;5526498;25;19936;-70
2024/04/20 11:50:35;;;;;;;;;;;9.00;78.40;;;;;;5525546;25;19976;-70
2024/04/20 11:55:45;;;;;;;;;;;10.00;29.30;;;;;;5526536;26;19933;-69
2024/04/20 11:58:11;;;;;;;;;;;10.30;35.30;;;;;;5525843;25;19928;-70
2024/04/20 12:00:39;;;;;;;;;;;10.60;17.10;;;;;;5526062;25;19943;-70
2024/04/20 12:03:05;;;;;;;;;;;10.60;12.70;;;;;;5526581;25;20268;-69
2024/04/20 12:05:30;;;;;;;;;;;10.50;14.60;;;;;;5526112;25;19927;-69
2024/04/20 12:07:56;;;;;;;;;;;10.30;7.50;;;;;;5526117;25;19927;-69
2024/04/20 12:10:21;;;;;;;;;;;10.30;4.30;;;;;;5525817;25;19935;-70
2024/04/20 12:12:47;;;;;;;;;;;10.30;4.50;;;;;;5525723;25;19935;-70
2024/04/20 12:15:13;;;;;;;;;;;9.20;8.50;;;;;;5526170;25;19935;-70
2024/04/20 12:17:38;;;;;;;;;;;8.20;46.20;;;;;;5526122;25;19933;-70
2024/04/20 12:20:04;;;;;;;;;;;7.50;75.20;;;;;;5525832;25;20629;-70
2024/04/20 12:22:31;;;;;;;;;;;7.10;93.00;;;;;;5525750;25;19935;-70
2024/04/20 12:24:59;;;;;;;;;;;6.80;95.10;;;;;;5526062;25;19972;-70
2024/04/20 12:27:24;;;;;;;;;;;6.80;99.90;;;;;;5525857;26;19928;-70
2024/04/20 12:29:50;;;;;;;;;;;6.90;99.10;;;;;;5525951;25;19935;-70
2024/04/20 12:32:16;;;;;;;;;;;7.10;99.90;;;;;;5524652;25;19955;-70
2024/04/20 12:34:42;;;;;;;;;;;7.30;99.90;;;;;;5525787;25;19936;-70
2024/04/20 12:37:07;;;;;;;;;;;7.40;99.90;;;;;;5525890;25;19928;-70
2024/04/20 12:39:33;;;;;;;;;;;7.70;93.90;;;;;;5525583;26;19951;-70
2024/04/20 12:41:59;;;;;;;;;;;8.40;91.10;;;;;;5525170;25;19928;-70
2024/04/20 12:44:24;;;;;;;;;;;9.30;71.80;;;;;;5525884;26;19928;-70
2024/04/20 12:46:53;;;;;;;;;;;9.90;41.80;;;;;;5525706;26;19934;-70
2024/04/20 12:49:18;;;;;;;;;;;9.90;12.40;;;;;;5525189;26;20438;-70
2024/04/20 12:51:43;;;;;;;;;;;9.80;6.50;;;;;;5525118;25;19936;-70
2024/04/20 12:54:09;;;;;;;;;;;10.20;1.70;;;;;;5525442;25;20274;-70
2024/04/20 12:56:35;;;;;;;;;;;10.40;1.00;;;;;;5525281;25;19934;-70
2024/04/20 12:59:00;;;;;;;;;;;10.60;1.50;;;;;;5525334;25;19927;-69
2024/04/20 13:01:26;;;;;;;;;;;11.30;1.00;;;;;;5525219;25;20264;-70
2024/04/20 13:03:51;;;;;;;;;;;12.30;1.00;;;;;;5524880;25;19935;-68
2024/04/20 13:06:17;;;;;;;;;;;13.40;1.00;;;;;;5525512;26;19927;-70
2024/04/20 13:08:43;;;;;;;;;;;14.00;1.00;;;;;;5525351;25;19927;-67
2024/04/20 13:11:09;;;;;;;;;;;14.50;1.00;;;;;;5524734;25;19935;-71
2024/04/20 13:13:35;;;;;;;;;;;14.50;1.00;;;;;;5525379;25;20439;-70
2024/04/20 13:16:01;;;;;;;;;;;13.40;1.00;;;;;;5504131;25;19939;-69
2024/04/20 13:18:27;;;;;;;;;;;12.80;1.00;;;;;;5507514;25;19940;-70
2024/04/20 13:20:56;;;;;;;;;;;12.50;1.00;;;;;;5524850;25;19931;-72
2024/04/20 13:23:22;;;;;;;;;;;12.50;1.00;;;;;;5525247;25;19975;-73
2024/04/20 13:25:54;;;;;;;;;;;12.70;1.00;;;;;;5524722;25;19935;-72
2024/04/20 13:28:25;;;;;;;;;;;12.60;1.00;;;;;;5493245;26;19927;-72
2024/04/20 13:30:54;;;;;;;;;;;13.00;1.00;;;;;;5524556;25;19928;-69
2024/04/20 13:33:20;;;;;;;;;;;13.10;1.00;;;;;;5524484;25;19943;-70
2024/04/20 13:35:52;;;;;;;;;;;12.50;1.00;;;;;;5524973;25;19939;-70
2024/04/20 13:38:18;;;;;;;;;;;11.80;1.00;;;;;;5524785;25;20054;-70
2024/04/20 13:40:52;;;;;;;;;;;11.20;1.00;;;;;;5524086;25;19928;-70
2024/04/20 13:43:18;;;;;;;;;;;10.80;1.00;;;;;;5524936;25;19935;-70
2024/04/20 13:45:43;;;;;;;;;;;10.30;1.00;;;;;;5527813;25;19960;-70
2024/04/20 13:48:09;;;;;;;;;;;9.80;1.00;;;;;;5528136;25;19934;-69
2024/04/20 13:50:40;;;;;;;;;;;9.00;4.70;;;;;;5527983;25;19927;-70
2024/04/20 13:53:05;;;;;;;;;;;8.70;25.20;;;;;;5528461;25;19994;-69
2024/04/20 13:55:34;;;;;;;;;;;8.60;34.00;;;;;;5528218;25;19928;-69
2024/04/20 13:58:00;;;;;;;;;;;8.70;32.60;;;;;;5528430;25;20263;-70
2024/04/20 14:00:25;;;;;;;;;;;9.00;41.30;;;;;;5527697;26;19934;-70
2024/04/20 14:02:51;;;;;;;;;;;9.60;62.00;;;;;;5527951;25;19928;-68
2024/04/20 14:05:18;;;;;;;;;;;10.40;61.70;;;;;;5527749;25;19996;-70
2024/04/20 14:07:46;;;;;;;;;;;11.10;13.80;;;;;;5528105;25;19939;-69
2024/04/20 14:10:15;;;;;;;;;;;11.40;1.00;;;;;;5527535;25;19938;-70
2024/04/20 14:12:41;;;;;;;;;;;11.50;1.00;;;;;;5527230;25;19935;-70
2024/04/20 14:15:07;;;;;;;;;;;11.30;1.00;;;;;;5528160;25;20267;-71
2024/04/20 14:17:33;;;;;;;;;;;10.90;3.30;;;;;;5527956;25;19927;-71
2024/04/20 14:19:58;;;;;;;;;;;10.50;16.60;;;;;;5528118;25;19935;-73
2024/04/20 14:22:23;;;;;;;;;;;10.00;4.60;;;;;;5525058;25;19932;-72
2024/04/20 14:24:49;;;;;;;;;;;9.70;9.90;;;;;;5526527;25;19934;-72
2024/04/20 14:27:15;;;;;;;;;;;9.60;9.70;;;;;;5527818;25;20359;-71